createdAt,value
2023-04-30T00:01:46.155Z,79.20
2023-04-30T00:04:14.053Z,79.57
2023-04-30T00:06:41.787Z,79.52
2023-04-30T00:09:10.981Z,79.65
2023-04-30T00:11:38.738Z,79.64
2023-04-30T00:14:06.449Z,80.04
2023-04-30T00:16:34.466Z,79.64
2023-04-30T00:19:02.213Z,79.68
2023-04-30T00:21:29.983Z,79.56
2023-04-30T00:23:57.580Z,79.62
2023-04-30T00:26:26.666Z,79.53
2023-04-30T00:28:55.303Z,79.75
2023-04-30T00:31:22.928Z,80.03
2023-04-30T00:33:50.769Z,80.40
2023-04-30T00:36:18.565Z,80.20
2023-04-30T00:38:46.369Z,80.36
2023-04-30T00:41:14.538Z,80.37
2023-04-30T00:43:43.672Z,80.35
2023-04-30T00:46:11.338Z,80.60
2023-04-30T00:48:39.396Z,80.49
2023-04-30T00:51:07.934Z,80.29
2023-04-30T00:53:36.567Z,80.07
2023-04-30T00:56:05.329Z,80.00
2023-04-30T00:58:33.072Z,80.08
2023-04-30T01:01:02.363Z,80.16
2023-04-30T01:03:30.689Z,80.37
2023-04-30T01:05:58.445Z,80.39
2023-04-30T01:08:27.089Z,80.14
2023-04-30T01:11:03.035Z,80.25
2023-04-30T01:13:35.735Z,80.08
2023-04-30T01:16:13.966Z,80.05
2023-04-30T01:18:47.667Z,79.86
2023-04-30T01:21:19.420Z,80.24
2023-04-30T01:24:07.654Z,80.31
2023-04-30T01:26:49.804Z,80.18
2023-04-30T01:29:21.615Z,80.35
2023-04-30T01:31:49.475Z,80.31
2023-04-30T01:34:17.167Z,80.23
2023-04-30T01:36:54.609Z,79.83
2023-04-30T01:39:47.466Z,79.94
2023-04-30T01:42:21.933Z,79.93
2023-04-30T01:45:16.715Z,80.09
2023-04-30T01:47:51.260Z,80.22
2023-04-30T01:50:30.961Z,80.27
2023-04-30T01:53:02.055Z,80.39
2023-04-30T01:55:35.550Z,80.47
2023-04-30T01:58:06.315Z,80.38
2023-04-30T02:00:35.584Z,80.49
2023-04-30T02:03:03.516Z,80.67
2023-04-30T02:05:31.276Z,80.39
2023-04-30T02:07:59.129Z,80.66
2023-04-30T02:10:29.393Z,80.50
2023-04-30T02:12:57.564Z,80.77
2023-04-30T02:15:25.606Z,80.64
2023-04-30T02:17:54.722Z,80.77
2023-04-30T02:20:22.416Z,81.32
2023-04-30T02:22:50.359Z,81.65
2023-04-30T02:25:18.191Z,81.41
2023-04-30T02:27:46.249Z,81.67
2023-04-30T02:30:13.893Z,81.78
2023-04-30T02:32:41.666Z,81.98
2023-04-30T02:35:12.009Z,81.57
2023-04-30T02:37:39.846Z,81.52
2023-04-30T02:40:09.019Z,81.21
2023-04-30T02:42:37.130Z,80.91
2023-04-30T02:45:05.247Z,81.02
2023-04-30T02:47:32.938Z,81.31
2023-04-30T02:50:00.673Z,81.26
2023-04-30T02:52:29.656Z,81.15
2023-04-30T02:54:57.301Z,81.12
2023-04-30T02:57:24.899Z,81.10
2023-04-30T02:59:52.710Z,80.95
2023-04-30T03:02:21.829Z,81.33
2023-04-30T03:04:49.726Z,81.44
2023-04-30T03:07:17.386Z,81.64
2023-04-30T03:09:47.704Z,81.73
2023-04-30T03:12:15.504Z,81.67
2023-04-30T03:14:44.152Z,82.25
2023-04-30T03:17:11.787Z,82.30
2023-04-30T03:19:39.475Z,82.26
2023-04-30T03:22:07.093Z,82.83
2023-04-30T03:24:35.372Z,82.59
2023-04-30T03:27:04.456Z,82.91
2023-04-30T03:29:32.099Z,82.84
2023-04-30T03:31:59.753Z,83.16
2023-04-30T03:34:27.456Z,83.36
2023-04-30T03:36:55.346Z,83.46
2023-04-30T03:39:22.937Z,83.46
2023-04-30T03:41:50.695Z,83.69
2023-04-30T03:44:19.680Z,83.82
2023-04-30T03:46:47.285Z,83.34
2023-04-30T03:49:15.057Z,83.34
2023-04-30T03:51:42.674Z,83.23
2023-04-30T03:54:10.904Z,83.56
2023-04-30T03:56:39.137Z,83.55
2023-04-30T03:59:07.179Z,83.53
2023-04-30T04:01:36.317Z,83.56
2023-04-30T04:04:04.339Z,83.23
2023-04-30T04:06:33.541Z,83.37
2023-04-30T04:09:01.430Z,83.33
2023-04-30T04:11:29.043Z,83.39
2023-04-30T04:13:58.067Z,83.67
2023-04-30T04:16:26.733Z,83.97
2023-04-30T04:18:55.972Z,83.60
2023-04-30T04:21:24.108Z,83.74
2023-04-30T04:23:52.226Z,83.71
2023-04-30T04:26:21.500Z,83.56
2023-04-30T04:28:49.392Z,83.74
2023-04-30T04:31:17.152Z,83.62
2023-04-30T04:33:45.621Z,83.74
2023-04-30T04:36:14.615Z,83.29
2023-04-30T04:38:42.371Z,83.26
2023-04-30T04:41:10.184Z,83.40
2023-04-30T04:43:38.497Z,83.18
2023-04-30T04:46:06.552Z,83.45
2023-04-30T04:48:34.286Z,83.45
2023-04-30T04:51:01.988Z,83.24
2023-04-30T04:53:32.956Z,83.27
2023-04-30T04:56:02.379Z,83.57
2023-04-30T04:58:30.159Z,84.00
2023-04-30T05:01:00.011Z,83.88
2023-04-30T05:03:28.077Z,83.36
2023-04-30T05:05:56.640Z,83.38
2023-04-30T05:08:24.763Z,83.07
2023-04-30T05:10:53.889Z,83.28
2023-04-30T05:13:21.529Z,82.95
2023-04-30T05:15:52.262Z,82.63
2023-04-30T05:18:20.120Z,82.95
2023-04-30T05:20:48.041Z,82.80
2023-04-30T05:23:15.660Z,82.64
2023-04-30T05:25:43.290Z,82.49
2023-04-30T05:28:12.420Z,82.08
2023-04-30T05:30:40.168Z,81.79
2023-04-30T05:33:07.801Z,81.95
2023-04-30T05:35:36.400Z,81.74
2023-04-30T05:38:04.193Z,81.44
2023-04-30T05:40:31.901Z,81.23
2023-04-30T05:42:59.891Z,80.52
2023-04-30T05:45:29.729Z,80.15
2023-04-30T05:47:57.400Z,79.75
2023-04-30T05:50:25.049Z,79.78
2023-04-30T05:52:52.654Z,79.30
2023-04-30T05:55:20.382Z,79.11
2023-04-30T05:57:48.292Z,78.83
2023-04-30T06:00:16.890Z,78.76
2023-04-30T06:02:45.865Z,79.13
2023-04-30T06:05:15.966Z,78.54
2023-04-30T06:07:43.936Z,77.11
2023-04-30T06:10:12.538Z,77.13
2023-04-30T06:12:40.288Z,76.87
2023-04-30T06:15:08.743Z,76.37
2023-04-30T06:17:36.408Z,75.57
2023-04-30T06:20:07.218Z,75.54
2023-04-30T06:22:35.054Z,75.18
2023-04-30T06:25:03.860Z,75.38
2023-04-30T06:27:32.403Z,74.97
2023-04-30T06:30:01.176Z,74.42
2023-04-30T06:32:28.905Z,74.81
2023-04-30T06:34:56.876Z,74.09
2023-04-30T06:37:25.894Z,74.23
2023-04-30T06:39:53.962Z,73.70
2023-04-30T06:42:22.012Z,73.10
2023-04-30T06:44:49.868Z,73.26
2023-04-30T06:47:17.480Z,73.41
2023-04-30T06:49:45.236Z,72.67
2023-04-30T06:52:13.011Z,72.71
2023-04-30T06:54:42.885Z,72.75
2023-04-30T06:57:10.912Z,71.92
2023-04-30T06:59:39.329Z,71.89
2023-04-30T07:02:07.625Z,71.89
2023-04-30T07:04:35.378Z,71.56
2023-04-30T07:07:03.138Z,72.13
2023-04-30T07:09:30.971Z,71.99
2023-04-30T07:12:00.206Z,72.01
2023-04-30T07:14:27.802Z,71.38
2023-04-30T07:16:55.532Z,72.22
2023-04-30T07:19:23.830Z,72.52
2023-04-30T07:21:51.581Z,71.98
2023-04-30T07:24:19.329Z,71.75
2023-04-30T07:26:46.943Z,72.62
2023-04-30T07:29:16.240Z,71.22
2023-04-30T07:31:44.001Z,71.43
2023-04-30T07:34:11.866Z,71.94
2023-04-30T07:36:39.725Z,71.31
2023-04-30T07:39:07.978Z,70.55
2023-04-30T07:41:35.877Z,70.09
2023-04-30T07:44:03.498Z,69.05
2023-04-30T07:46:32.939Z,69.65
2023-04-30T07:49:00.664Z,69.12
2023-04-30T07:51:29.132Z,68.48
2023-04-30T07:53:56.746Z,69.30
2023-04-30T07:56:24.707Z,67.74
2023-04-30T07:58:52.357Z,68.58
2023-04-30T08:01:20.218Z,67.46
2023-04-30T08:03:49.306Z,67.21
2023-04-30T08:06:17.036Z,67.01
2023-04-30T08:08:44.671Z,67.72
2023-04-30T08:11:12.508Z,67.74
2023-04-30T08:13:40.190Z,67.31
2023-04-30T08:16:07.857Z,67.50
2023-04-30T08:18:37.266Z,67.27
2023-04-30T08:21:06.671Z,67.03
2023-04-30T08:23:34.302Z,66.34
2023-04-30T08:26:02.523Z,65.26
2023-04-30T08:28:30.110Z,65.30
2023-04-30T08:30:58.007Z,65.43
2023-04-30T08:33:25.696Z,65.55
2023-04-30T08:35:53.894Z,66.04
2023-04-30T08:38:22.825Z,67.13
2023-04-30T08:40:57.507Z,64.51
2023-04-30T08:43:25.213Z,65.82
2023-04-30T08:45:53.101Z,66.58
2023-04-30T08:48:24.736Z,64.50
2023-04-30T08:50:52.342Z,64.62
2023-04-30T08:53:22.018Z,64.18
2023-04-30T08:55:51.124Z,63.11
2023-04-30T08:58:18.843Z,63.69
2023-04-30T09:00:46.634Z,63.58
2023-04-30T09:03:14.726Z,63.52
2023-04-30T09:05:42.705Z,62.94
2023-04-30T09:08:10.357Z,60.52
2023-04-30T09:10:38.102Z,59.38
2023-04-30T09:13:08.906Z,59.01
2023-04-30T09:15:37.941Z,58.11
2023-04-30T09:18:14.456Z,60.33
2023-04-30T09:20:56.431Z,60.62
2023-04-30T09:23:25.213Z,61.80
2023-04-30T09:25:52.791Z,61.63
2023-04-30T09:28:25.665Z,61.69
2023-04-30T09:30:54.260Z,62.32
2023-04-30T09:33:21.959Z,62.98
2023-04-30T09:35:49.894Z,62.77
2023-04-30T09:38:28.461Z,62.25
2023-04-30T09:40:57.113Z,61.90
2023-04-30T09:43:26.310Z,59.64
2023-04-30T09:45:53.961Z,60.25
2023-04-30T09:48:22.984Z,60.24
2023-04-30T09:50:51.452Z,61.06
2023-04-30T09:53:20.308Z,59.48
2023-04-30T09:55:49.685Z,59.39
2023-04-30T09:58:19.486Z,57.64
2023-04-30T10:00:49.451Z,59.48
2023-04-30T10:03:17.437Z,59.54
2023-04-30T10:05:47.188Z,59.92
2023-04-30T10:08:20.513Z,59.01
2023-04-30T10:10:56.597Z,58.88
2023-04-30T10:13:27.547Z,57.51
2023-04-30T10:16:00.322Z,58.63
2023-04-30T10:18:31.152Z,59.34
2023-04-30T10:21:03.854Z,59.62
2023-04-30T10:23:31.718Z,59.02
2023-04-30T10:26:00.123Z,58.63
2023-04-30T10:28:28.381Z,57.66
2023-04-30T10:30:58.725Z,56.72
2023-04-30T10:33:33.245Z,55.86
2023-04-30T10:36:02.695Z,56.52
2023-04-30T10:38:32.568Z,58.03
2023-04-30T10:41:01.780Z,57.90
2023-04-30T10:43:31.987Z,57.48
2023-04-30T10:46:01.179Z,57.20
2023-04-30T10:48:31.149Z,55.69
2023-04-30T10:51:00.338Z,57.31
2023-04-30T10:53:32.295Z,57.40
2023-04-30T10:56:06.466Z,56.02
2023-04-30T10:58:35.987Z,54.84
2023-04-30T11:01:08.545Z,56.69
2023-04-30T11:03:38.091Z,57.55
2023-04-30T11:06:14.640Z,56.14
2023-04-30T11:08:45.811Z,56.46
2023-04-30T11:11:18.399Z,55.94
2023-04-30T11:13:47.017Z,56.86
2023-04-30T11:16:17.640Z,56.72
2023-04-30T11:18:46.508Z,57.01
2023-04-30T11:21:14.625Z,54.90
2023-04-30T11:23:44.008Z,54.56
2023-04-30T11:26:11.904Z,54.72
2023-04-30T11:28:39.720Z,54.43
2023-04-30T11:31:07.435Z,53.73
2023-04-30T11:33:36.728Z,54.66
2023-04-30T11:36:04.667Z,54.53
2023-04-30T11:38:36.168Z,54.47
2023-04-30T11:41:05.134Z,52.57
2023-04-30T11:43:34.548Z,54.79
2023-04-30T11:46:08.524Z,53.58
2023-04-30T11:48:39.181Z,53.40
2023-04-30T11:51:15.347Z,52.75
2023-04-30T11:53:43.497Z,53.89
2023-04-30T11:56:11.054Z,52.31
2023-04-30T11:58:40.369Z,52.23
2023-04-30T12:01:09.450Z,52.63
2023-04-30T12:03:44.195Z,53.58
2023-04-30T12:06:12.857Z,54.21
2023-04-30T12:08:42.956Z,51.26
2023-04-30T12:11:21.694Z,53.00
2023-04-30T12:13:53.912Z,53.65
2023-04-30T12:16:21.766Z,51.84
2023-04-30T12:18:52.775Z,52.85
2023-04-30T12:21:22.514Z,51.68
2023-04-30T12:23:50.399Z,51.88
2023-04-30T12:26:18.095Z,52.69
2023-04-30T12:28:48.366Z,51.71
2023-04-30T12:31:18.063Z,52.44
2023-04-30T12:33:45.719Z,52.55
2023-04-30T12:36:14.744Z,51.57
2023-04-30T12:38:43.939Z,53.55
2023-04-30T12:41:13.634Z,53.04
2023-04-30T12:43:41.256Z,53.08
2023-04-30T12:46:08.960Z,52.58
2023-04-30T12:48:45.767Z,53.26
2023-04-30T12:51:20.955Z,52.92
2023-04-30T12:53:49.086Z,53.50
2023-04-30T12:56:19.594Z,54.34
2023-04-30T12:58:51.152Z,52.97
2023-04-30T13:01:21.542Z,51.73
2023-04-30T13:03:49.399Z,50.14
2023-04-30T13:06:18.553Z,51.10
2023-04-30T13:08:57.827Z,51.14
2023-04-30T13:11:27.709Z,51.38
2023-04-30T13:13:56.119Z,51.67
2023-04-30T13:16:25.654Z,52.49
2023-04-30T13:18:55.809Z,52.38
2023-04-30T13:21:25.855Z,54.19
2023-04-30T13:23:59.728Z,53.00
2023-04-30T13:26:28.631Z,54.15
2023-04-30T13:28:56.522Z,52.60
2023-04-30T13:31:24.276Z,52.48
2023-04-30T13:33:51.916Z,51.35
2023-04-30T13:36:19.618Z,51.17
2023-04-30T13:38:48.778Z,50.94
2023-04-30T13:41:16.693Z,49.98
2023-04-30T13:43:46.240Z,51.09
2023-04-30T13:46:14.392Z,51.30
2023-04-30T13:48:42.717Z,50.35
2023-04-30T13:51:10.638Z,51.19
2023-04-30T13:53:38.474Z,50.88
2023-04-30T13:56:08.139Z,51.29
2023-04-30T13:58:35.823Z,51.68
2023-04-30T14:01:03.748Z,51.92
2023-04-30T14:03:31.533Z,51.39
2023-04-30T14:05:59.349Z,51.54
2023-04-30T14:08:27.171Z,51.76
2023-04-30T14:10:54.833Z,51.64
2023-04-30T14:13:23.977Z,52.02
2023-04-30T14:15:51.909Z,51.64
2023-04-30T14:18:22.588Z,52.00
2023-04-30T14:20:51.063Z,50.58
2023-04-30T14:23:18.750Z,50.24
2023-04-30T14:25:46.488Z,50.43
2023-04-30T14:28:14.111Z,51.53
2023-04-30T14:30:43.742Z,52.43
2023-04-30T14:33:12.939Z,52.60
2023-04-30T14:35:41.623Z,50.82
2023-04-30T14:38:09.349Z,52.04
2023-04-30T14:40:37.384Z,52.24
2023-04-30T14:43:05.070Z,51.96
2023-04-30T14:45:34.035Z,50.88
2023-04-30T14:48:05.456Z,51.86
2023-04-30T14:50:33.574Z,52.57
2023-04-30T14:53:01.280Z,52.49
2023-04-30T14:55:29.195Z,52.36
2023-04-30T14:57:56.940Z,51.75
2023-04-30T15:00:24.815Z,51.69
2023-04-30T15:02:52.528Z,53.08
2023-04-30T15:05:22.244Z,51.91
2023-04-30T15:07:49.843Z,52.79
2023-04-30T15:10:18.343Z,53.67
2023-04-30T15:12:45.977Z,52.35
2023-04-30T15:15:13.770Z,52.14
2023-04-30T15:17:41.516Z,52.16
2023-04-30T15:20:10.559Z,51.50
2023-04-30T15:22:39.523Z,50.89
2023-04-30T15:25:07.906Z,51.28
2023-04-30T15:27:36.752Z,52.13
2023-04-30T15:30:04.951Z,51.62
2023-04-30T15:32:32.528Z,51.74
2023-04-30T15:35:00.465Z,52.66
2023-04-30T15:37:28.061Z,52.01
2023-04-30T15:39:57.177Z,53.00
2023-04-30T15:42:25.065Z,52.22
2023-04-30T15:44:53.053Z,53.07
2023-04-30T15:47:23.188Z,53.40
2023-04-30T15:49:51.535Z,52.61
2023-04-30T15:52:19.254Z,53.11
2023-04-30T15:54:46.939Z,52.82
2023-04-30T15:57:16.119Z,52.08
2023-04-30T15:59:43.787Z,51.85
2023-04-30T16:02:11.893Z,51.74
2023-04-30T16:04:39.715Z,51.54
2023-04-30T16:07:07.482Z,51.50
2023-04-30T16:09:35.169Z,51.09
2023-04-30T16:12:02.968Z,51.44
2023-04-30T16:14:31.981Z,52.36
2023-04-30T16:16:59.835Z,51.79
2023-04-30T16:19:27.512Z,51.47
2023-04-30T16:21:55.421Z,51.83
2023-04-30T16:24:22.997Z,51.55
2023-04-30T16:26:50.840Z,51.27
2023-04-30T16:29:18.582Z,51.24
2023-04-30T16:31:48.288Z,52.43
2023-04-30T16:34:15.970Z,53.30
2023-04-30T16:36:43.590Z,53.26
2023-04-30T16:39:12.306Z,53.05
2023-04-30T16:41:39.908Z,53.38
2023-04-30T16:44:07.557Z,54.63
2023-04-30T16:46:36.205Z,54.63
2023-04-30T16:49:05.255Z,55.33
2023-04-30T16:51:33.219Z,55.71
2023-04-30T16:54:00.881Z,55.79
2023-04-30T16:56:28.579Z,54.52
2023-04-30T16:58:56.364Z,55.29
2023-04-30T17:01:24.156Z,55.99
2023-04-30T17:03:52.212Z,55.74
2023-04-30T17:06:21.406Z,55.81
2023-04-30T17:08:49.008Z,55.88
2023-04-30T17:11:19.091Z,55.86
2023-04-30T17:13:46.713Z,56.99
2023-04-30T17:16:14.453Z,56.69
2023-04-30T17:18:42.101Z,57.29
2023-04-30T17:21:10.022Z,57.68
2023-04-30T17:23:38.916Z,58.13
2023-04-30T17:26:06.676Z,58.69
2023-04-30T17:28:34.625Z,58.48
2023-04-30T17:31:03.921Z,58.82
2023-04-30T17:33:31.779Z,58.92
2023-04-30T17:35:59.765Z,59.46
2023-04-30T17:38:28.277Z,59.91
2023-04-30T17:40:57.810Z,60.17
2023-04-30T17:43:25.785Z,60.10
2023-04-30T17:45:54.373Z,60.13
2023-04-30T17:48:22.078Z,61.01
2023-04-30T17:50:49.854Z,59.24
2023-04-30T17:53:17.468Z,60.37
2023-04-30T17:55:45.490Z,61.01
2023-04-30T17:58:14.443Z,61.42
2023-04-30T18:00:43.217Z,60.99
2023-04-30T18:03:11.209Z,60.53
2023-04-30T18:05:39.555Z,61.17
2023-04-30T18:08:07.514Z,61.02
2023-04-30T18:10:35.124Z,60.95
2023-04-30T18:13:02.987Z,61.56
2023-04-30T18:15:32.009Z,61.89
2023-04-30T18:18:00.246Z,61.74
2023-04-30T18:20:28.023Z,61.95
2023-04-30T18:22:56.050Z,62.19
2023-04-30T18:25:23.663Z,61.90
2023-04-30T18:27:51.293Z,61.96
2023-04-30T18:30:18.919Z,62.74
2023-04-30T18:32:48.064Z,62.64
2023-04-30T18:35:15.974Z,62.88
2023-04-30T18:37:43.712Z,63.07
2023-04-30T18:40:11.898Z,63.33
2023-04-30T18:42:39.550Z,63.46
2023-04-30T18:45:09.073Z,63.92
2023-04-30T18:47:36.847Z,64.05
2023-04-30T18:50:07.719Z,64.43
2023-04-30T18:52:35.467Z,64.31
2023-04-30T18:55:03.143Z,64.52
2023-04-30T18:57:30.976Z,64.71
2023-04-30T18:59:58.733Z,64.72
2023-04-30T19:02:26.868Z,64.99
2023-04-30T19:04:55.145Z,65.08
2023-04-30T19:07:24.358Z,65.33
2023-04-30T19:09:53.425Z,65.28
2023-04-30T19:12:21.618Z,65.60
2023-04-30T19:14:49.524Z,65.88
2023-04-30T19:17:20.172Z,65.96
2023-04-30T19:19:50.171Z,66.37
2023-04-30T19:22:18.143Z,66.59
2023-04-30T19:24:47.119Z,66.27
2023-04-30T19:27:14.762Z,66.65
2023-04-30T19:29:42.799Z,66.67
2023-04-30T19:32:10.720Z,66.81
2023-04-30T19:34:39.093Z,67.02
2023-04-30T19:37:07.062Z,67.00
2023-04-30T19:39:36.700Z,66.97
2023-04-30T19:42:06.215Z,67.88
2023-04-30T19:44:34.559Z,67.51
2023-04-30T19:47:02.394Z,67.36
2023-04-30T19:49:30.242Z,67.44
2023-04-30T19:51:59.214Z,66.79
2023-04-30T19:54:27.061Z,67.21
2023-04-30T19:56:54.670Z,66.98
2023-04-30T19:59:24.044Z,67.10
2023-04-30T20:01:53.330Z,67.33
2023-04-30T20:04:21.681Z,67.17
2023-04-30T20:06:55.938Z,67.19
2023-04-30T20:09:24.189Z,67.16
2023-04-30T20:11:52.061Z,67.02
2023-04-30T20:14:20.110Z,67.37
2023-04-30T20:16:53.970Z,67.15
2023-04-30T20:19:23.003Z,67.06
2023-04-30T20:21:51.389Z,66.75
2023-04-30T20:24:19.434Z,66.79
2023-04-30T20:26:47.050Z,67.17
2023-04-30T20:29:15.071Z,66.93
2023-04-30T20:31:43.059Z,66.99
2023-04-30T20:34:12.165Z,67.00
2023-04-30T20:36:39.904Z,66.80
2023-04-30T20:39:08.740Z,66.61
2023-04-30T20:41:36.669Z,67.12
2023-04-30T20:44:04.998Z,67.28
2023-04-30T20:46:32.663Z,67.67
2023-04-30T20:49:04.558Z,67.99
2023-04-30T20:51:33.557Z,68.25
2023-04-30T20:54:01.335Z,68.31
2023-04-30T20:56:29.297Z,68.25
2023-04-30T20:58:57.310Z,68.16
2023-04-30T21:01:24.931Z,68.55
2023-04-30T21:03:52.779Z,68.74
2023-04-30T21:06:20.485Z,68.82
2023-04-30T21:08:49.650Z,69.06
2023-04-30T21:11:18.886Z,69.49
2023-04-30T21:13:47.020Z,69.17
2023-04-30T21:16:15.641Z,69.42
2023-04-30T21:18:44.329Z,69.47
2023-04-30T21:21:12.114Z,69.51
2023-04-30T21:23:40.027Z,69.45
2023-04-30T21:26:09.173Z,69.64
2023-04-30T21:28:37.098Z,69.62
2023-04-30T21:31:05.859Z,69.74
2023-04-30T21:33:33.628Z,69.70
2023-04-30T21:36:01.615Z,69.86
2023-04-30T21:38:29.300Z,70.36
2023-04-30T21:40:57.088Z,70.89
2023-04-30T21:43:26.044Z,70.94
2023-04-30T21:45:53.911Z,71.22
2023-04-30T21:48:21.495Z,71.30
2023-04-30T21:50:49.832Z,71.29
2023-04-30T21:53:18.356Z,71.42
2023-04-30T21:55:45.987Z,71.42
2023-04-30T21:58:13.627Z,71.43
2023-04-30T22:00:43.016Z,71.59
2023-04-30T22:03:10.929Z,71.38
2023-04-30T22:05:39.907Z,71.72
2023-04-30T22:08:07.567Z,71.76
2023-04-30T22:10:35.383Z,71.81
2023-04-30T22:13:02.977Z,71.58
2023-04-30T22:15:37.268Z,71.66
2023-04-30T22:18:16.028Z,71.57
2023-04-30T22:20:43.874Z,71.80
2023-04-30T22:23:11.669Z,72.52
2023-04-30T22:25:39.659Z,72.43
2023-04-30T22:28:07.339Z,72.79
2023-04-30T22:30:35.260Z,73.20
2023-04-30T22:33:03.416Z,73.41
2023-04-30T22:35:32.954Z,73.30
2023-04-30T22:38:01.578Z,73.22
2023-04-30T22:40:29.381Z,75.23
2023-04-30T22:42:57.038Z,74.99
2023-04-30T22:45:24.785Z,75.61
2023-04-30T22:47:53.994Z,75.78
2023-04-30T22:50:21.981Z,75.62
2023-04-30T22:52:51.397Z,75.95
2023-04-30T22:55:19.719Z,75.89
2023-04-30T22:57:47.350Z,75.64
2023-04-30T23:00:16.236Z,75.68
2023-04-30T23:02:44.298Z,75.98
2023-04-30T23:05:12.791Z,75.58
2023-04-30T23:07:40.852Z,75.63
2023-04-30T23:10:11.011Z,75.54
2023-04-30T23:12:38.760Z,75.21
2023-04-30T23:15:07.585Z,75.39
2023-04-30T23:17:35.388Z,75.54
2023-04-30T23:20:03.152Z,75.31
2023-04-30T23:22:31.570Z,75.33
2023-04-30T23:24:59.460Z,75.21
2023-04-30T23:27:28.787Z,75.09
2023-04-30T23:29:57.486Z,75.35
2023-04-30T23:32:26.209Z,75.33
2023-04-30T23:34:53.949Z,75.19
2023-04-30T23:37:21.704Z,75.45
2023-04-30T23:39:49.330Z,75.57
2023-04-30T23:42:17.204Z,75.41
2023-04-30T23:44:46.500Z,75.94
2023-04-30T23:47:14.369Z,75.80
2023-04-30T23:49:44.018Z,75.72
2023-04-30T23:52:14.370Z,75.78
2023-04-30T23:54:41.989Z,76.04
2023-04-30T23:57:10.214Z,75.91
2023-04-30T23:59:38.076Z,75.81
